Flight Track Log - Related Links

Times and Time Zones

All times are in EDT time to prevent confusion due to time zone crossing. See the JTA613 flight status page for this flight to view local times or setup timezone preferences in your user account.

Time Position Orientation Groundspeed Altitude Reporting Facility
EDT Latitude Longitude Course Direction KTS MPH feet Rate Location/Type
Thu 01:36:00 AM 26.0490 127.3619 240° Southwest  Level Estimated
Thu 01:37:00 AM 25.9999 127.2674 240° Southwest  Level Estimated
Thu 01:38:00 AM 25.9508 127.1730 240° Southwest  Level Estimated
Thu 01:39:00 AM 25.9016 127.0786 240° Southwest  Level Estimated
Thu 01:40:00 AM 25.8524 126.9843 240° Southwest  Level Estimated
Thu 01:41:00 AM 25.8030 126.8901 240° Southwest  Level Estimated
Thu 01:42:00 AM 25.7537 126.7960 240° Southwest  Level Estimated
Thu 01:43:00 AM 25.7042 126.7020 240° Southwest  Level Estimated
Thu 01:44:00 AM 25.6548 126.6080 240° Southwest  Level Estimated
Thu 01:45:00 AM 25.6052 126.5142 240° Southwest  Level Estimated
Thu 01:46:00 AM 25.5556 126.4204 240° Southwest  Level Estimated
Thu 01:47:00 AM 25.5059 126.3267 240° Southwest  Level Estimated
Thu 01:48:00 AM 25.4562 126.2330 240° Southwest  Level Estimated
Thu 01:49:00 AM 25.4064 126.1394 240° Southwest  Level Estimated
Thu 01:50:00 AM 25.3566 126.0460 239° Southwest  Level Estimated
Thu 01:51:00 AM 25.3066 125.9525 239° Southwest  Level Estimated
Thu 01:52:00 AM 25.2567 125.8592 239° Southwest  Level Estimated
Thu 01:53:00 AM 25.2066 125.7660 239° Southwest  Level Estimated
Thu 01:54:00 AM 25.1566 125.6728 239° Southwest  Level Estimated
Thu 01:55:00 AM 25.1064 125.5797 239° Southwest  Level Estimated
Thu 01:56:00 AM 25.0562 125.4866 239° Southwest  Level Estimated
Thu 01:57:00 AM 25.0060 125.3937 239° Southwest  Level Estimated
Thu 01:58:00 AM 24.9556 125.3008 239° Southwest  Level Estimated
Thu 01:59:00 AM 24.9053 125.2080 239° Southwest  Level Estimated
Thu 02:00:00 AM 24.8548 125.1153 239° Southwest  Level Estimated
Thu 02:01:00 AM 24.8043 125.0226 239° Southwest  Level Estimated
Thu 02:02:00 AM 24.7538 124.9301 239° Southwest  Level Estimated
Thu 02:03:00 AM 24.7032 124.8376 239° Southwest  Level Estimated
Thu 02:04:00 AM 24.6525 124.7451 239° Southwest  Level Estimated
Thu 02:05:00 AM 24.6018 124.6528 239° Southwest  Level Estimated
Thu 02:06:00 AM 24.5511 124.5605 239° Southwest  Level Estimated
Thu 02:07:00 AM 24.5002 124.4683 239° Southwest  Level Estimated
Thu 02:08:00 AM 24.4494 124.3762 239° Southwest  Level Estimated
Thu 02:09:00 AM 24.3984 124.2842 239° Southwest  Level Estimated
Thu 02:10:00 AM 24.3474 124.1922 239° Southwest  Level Estimated
Thu 02:11:00 AM 24.3445 124.1870 239° Southwest  Level Estimated
Thu 02:12:00 AM 24.3445 124.1870 29° Northeast  Level Estimated
Thu 02:13:00 AM 24.3445 124.1870 29° Northeast  Level Estimated
Thu 02:14:00 AM 24.3445 124.1870 29° Northeast  Level Estimated
Thu 02:15:00 AM 24.3445 124.1870 29° Northeast  Level Estimated
Thu 02:16:00 AM 24.3445 124.1870 29° Northeast  Level Estimated

Login

Don't have an account? Register now (free) for customized features, flight alerts, and more!